createdAt,value
2022-11-27T00:00:59.305Z,6.90
2022-11-27T00:03:30.906Z,6.80
2022-11-27T00:06:07.933Z,6.80
2022-11-27T00:08:38.704Z,6.80
2022-11-27T00:11:11.625Z,6.70
2022-11-27T00:13:42.518Z,6.60
2022-11-27T00:16:17.417Z,6.60
2022-11-27T00:18:48.813Z,6.60
2022-11-27T00:21:24.995Z,6.50
2022-11-27T00:23:56.859Z,6.50
2022-11-27T00:26:31.881Z,6.50
2022-11-27T00:29:05.958Z,6.50
2022-11-27T00:31:38.386Z,6.20
2022-11-27T00:34:11.047Z,6.40
2022-11-27T00:36:48.440Z,6.40
2022-11-27T00:39:22.354Z,6.30
2022-11-27T00:41:53.208Z,6.60
2022-11-27T00:44:24.014Z,6.30
2022-11-27T00:46:54.801Z,6.30
2022-11-27T00:49:25.554Z,6.20
2022-11-27T00:51:58.911Z,6.20
2022-11-27T00:54:31.566Z,6.20
2022-11-27T00:57:02.351Z,6.20
2022-11-27T00:59:33.875Z,6.30
2022-11-27T01:02:07.601Z,6.20
2022-11-27T01:04:38.657Z,6.20
2022-11-27T01:07:12.360Z,6.10
2022-11-27T01:09:43.611Z,5.90
2022-11-27T01:12:14.488Z,6.20
2022-11-27T01:14:45.262Z,6.20
2022-11-27T01:17:16.418Z,6.20
2022-11-27T01:19:47.133Z,6.20
2022-11-27T01:22:20.470Z,6.20
2022-11-27T01:24:51.329Z,6.10
2022-11-27T01:27:22.159Z,6.10
2022-11-27T01:29:53.219Z,6.10
2022-11-27T01:32:24.106Z,6.10
2022-11-27T01:34:54.827Z,6.10
2022-11-27T01:37:28.208Z,6.10
2022-11-27T01:39:58.996Z,6.10
